CDT,Max TemperatureF,Mean TemperatureF,Min TemperatureF,Max Dew PointF,MeanDew PointF,Min DewpointF,Max Humidity, Mean Humidity, Min Humidity, Max Sea Level PressureIn, Mean Sea Level PressureIn, Min Sea Level PressureIn, Max VisibilityMiles, Mean VisibilityMiles, Min VisibilityMiles, Max Wind SpeedMPH, Mean Wind SpeedMPH, Max Gust SpeedMPH,PrecipitationIn, CloudCover, Events, WindDirDegrees
2012-10-1,69,60,48,46,34,27,59,40,21,30.00,29.96,29.90,10,10,5,25,11,38,0.00,0,,328
2012-10-2,71,53,35,34,28,19,81,41,14,30.00,29.93,29.85,10,10,5,12,6,10,0.00,0,,217
2012-10-3,77,60,42,32,28,14,66,34,9,29.91,29.86,29.80,10,10,10,20,9,29,0.00,0,,176
2012-10-4,60,50,41,39,31,27,76,57,34,30.25,30.10,29.82,10,10,7,32,20,43,0.00,5,,291
2012-10-5,50,41,32,27,20,10,80,49,20,30.24,30.21,30.18,10,10,10,26,15,33,0.00,0,,299
2012-10-6,42,35,28,28,24,19,80,62,39,30.31,30.26,30.22,10,10,10,23,13,30,0.00,6,,321
2012-10-7,53,38,23,23,19,14,86,49,21,30.26,30.09,29.90,10,10,10,18,8,28,0.00,0,,225
2012-10-8,69,55,41,46,30,21,82,46,16,29.89,29.77,29.65,10,10,5,25,14,36,0.00,4,Rain,226
2012-10-9,50,41,32,45,34,25,87,66,40,30.06,29.89,29.76,10,10,10,29,11,36,0.02,6,Rain,281
2012-10-10,57,42,28,30,23,16,80,49,20,30.14,30.04,29.90,10,10,10,20,9,26,0.00,1,,241
2012-10-11,51,42,30,32,26,14,66,49,31,30.39,30.13,29.88,10,10,10,22,16,29,0.00,3,,331
2012-10-12,53,38,23,39,16,5,80,44,14,30.40,30.27,29.99,10,10,10,22,8,33,0.00,2,,135
2012-10-13,66,56,46,55,48,41,94,79,59,29.98,29.76,29.66,10,7,2,20,12,29,0.00,6,Thunderstorm,207
2012-10-14,60,50,41,48,37,30,93,67,34,29.94,29.82,29.71,10,8,0,28,14,36,0.00,4,Fog,327
2012-10-15,68,50,33,41,34,30,93,55,26,29.97,29.89,29.73,10,10,10,16,7,20,0.00,0,,207
2012-10-16,73,62,50,45,42,37,76,54,27,29.72,29.51,29.37,10,10,10,16,9,23,0.00,0,Rain,179
2012-10-17,62,53,42,48,39,32,76,59,44,29.42,29.33,29.20,10,10,10,30,17,43,0.00,6,Rain,254
2012-10-18,46,42,37,43,39,36,93,86,76,29.42,29.31,29.22,10,6,1,29,21,38,0.20,8,Rain,299
2012-10-19,42,42,41,39,38,37,87,85,81,29.77,29.63,29.42,10,8,2,32,22,39,0.12,8,Rain,320
2012-10-20,55,47,39,43,40,37,93,80,58,29.82,29.77,29.73,10,9,5,15,6,20,0.00,5,,189
2012-10-21,69,56,42,50,43,39,87,72,38,29.91,29.79,29.73,10,10,7,20,12,25,0.00,0,,203
2012-10-22,60,53,46,54,46,43,88,76,63,29.90,29.87,29.80,10,9,4,16,9,20,0.00,7,,28
2012-10-23,62,58,55,59,55,52,94,86,77,29.81,29.74,29.70,10,4,0,15,7,20,0.00,8,Fog-Thunderstorm,185
2012-10-24,57,50,42,54,46,37,94,87,81,29.87,29.81,29.77,10,4,0,22,8,29,0.01,8,Fog-Rain,351
2012-10-25,42,37,32,37,31,27,100,84,70,30.25,29.96,29.71,10,7,1,33,20,45,0.53,8,Rain-Snow-Thunderstorm,322
2012-10-26,37,35,33,27,25,23,75,66,56,30.41,30.35,30.25,10,10,10,18,13,23,0.00,8,,293
2012-10-27,39,32,26,27,22,18,86,64,45,30.37,30.32,30.27,10,10,10,9,5,,0.00,2,,194
2012-10-28,46,39,32,30,28,25,80,66,50,30.30,30.26,30.22,10,10,10,13,8,20,0.00,5,,161
2012-10-29,51,42,32,28,26,23,87,58,38,30.25,30.21,30.16,10,10,10,17,11,25,0.00,3,,144
2012-10-30,46,37,28,30,27,23,87,66,43,30.17,30.12,30.06,10,10,7,9,5,,0.00,5,,68
2012-10-31,55,42,30,34,25,16,87,55,28,30.08,30.01,29.95,10,10,7,8,4,,0.00,3,,283